Airfield :
LOGIN :

Register | Disclaimer

   EN    FR    IT 

 










Legend :    VFR   Marginal VFR   IFR   Intensive IFR   Very Intensive IFR
Visi :
Ceiling :
>= 8 km
>= 3000ft
5 to 8 km
1000 to 3000 ft
1500m to 5 km
500 to 1000 ft
800 to 1500m
200 to 500 ft
< 800m
< 200 ft
Symbols :   Thunderstorms  Fog  Heavy snow  Heavy precipitations  Wind > 20 kt
SIGMETs :     Misc.  Thunderstorms  Icing  Turbulence  Mountain Waves  Volcanic Ashes






- Airport Elevation : 465 ft


ENFB - Statfjord B Platform

CURRENT METAR :
  • 060320Z AUTO 16049KT 9000NDV FEW140/// SCT220/// 10/05 Q1003 W///S6

EXPIRED METARs :
  • 060250Z AUTO 16051KT 9000NDV BKN140/// BKN200/// 10/05 Q1004 W///S6
  • 060220Z AUTO 16051KT 9000NDV BKN140/// BKN210/// 09/05 Q1004 W///S6
  • 060150Z AUTO 16052KT 9000NDV FEW200/// 10/05 Q1004 W///S6
  • 060120Z AUTO 16049KT 9000NDV NCD 10/05 Q1005 W///S6
  • 060050Z AUTO 16048KT 9000NDV NCD 09/05 Q1005 W///S6

TAF N/A



MET'MAP, your aeronautical weather chart ! - Copyright ORBIFLY December 2007 - Disclaimer

ORBIFLY MET'MAP TEAM :

Programming & Development : Alexandra Zaïnal
Concept & original design : Baudouin d'Aumeries
Assistance for programming : Marc-Olivier Méhu
Technical & hardware support : Manuel Goepfert

Contact : metmap@orbifly.com




SOURCES & CREDITS :

   NOAA